ADDS METAR Data INFO
IDs: Format: Raw Decoded Include TAF

Data at: 0506 UTC 23 May 2017

KMDD 230455Z AUTO 18009KT 10SM CLR 18/13 A2992 RMK AO2 LTG DSNT SE T01780133
KMDD 230435Z AUTO 20004KT 10SM CLR 18/14 A2991 RMK AO2 LTG DSNT E T01820138
KMDD 230415Z AUTO 00000KT 10SM CLR 19/12 A2995 RMK AO2 LTG DSNT SE T01900121
KMDD 230355Z AUTO 07005KT 10SM CLR 18/13 A2997 RMK AO2 LTG DSNT SE P0002 T01770126
KMDD 230335Z AUTO 06014G17KT 10SM -TSRA SCT031 SCT050 BKN090 17/12 A2989 RMK AO2 LTG DSNT E AND SE P0002 T01730122
KMDD 230315Z AUTO 19010G25KT 10SM -VCTSRA SCT023 BKN036 OVC060 18/12 A3001 RMK AO2 LTG DSNT ALQS P0002 T01780122
KMDD 230255Z AUTO 28013G39KT 5SM TSRA SCT020 BKN044 OVC060 17/12 A3005 RMK AO2 LTG DSNT ALQS P0006 60006 T01700119
KMDD 230235Z AUTO 31012KT 7SM TSRA SCT047 BKN055 OVC100 22/17 A3006 RMK AO2 LTG DSNT ALQS P0001 T02160170
KMDD 230215Z AUTO 31006KT 10SM SCT100 BKN120 23/15 A3002 RMK AO2 LTG DSNT ALQS T02340152
KMDD 230155Z AUTO 23003KT 10SM CLR 24/15 A2998 RMK AO2 LTG DSNT E W AND NW T02360151
KMDD 230135Z AUTO 10003KT 10SM VCTS CLR 24/15 A2995 RMK AO2 LTG DSNT E AND S T02360147
KMDD 230115Z AUTO 11006KT 10SM SCT050 SCT065 24/15 A2995 RMK AO2 LTG DSNT E AND W T02400146
KMDD 230055Z AUTO 12007KT 10SM BKN050 BKN065 BKN120 24/15 A2995 RMK AO2 T02410146
KMDD 230035Z AUTO 04003KT 10SM SCT039 SCT044 BKN050 24/15 A2992 RMK AO2 LTG DSNT S T02410147
KMDD 230015Z AUTO 12003KT 10SM BKN037 BKN043 24/15 A2994 RMK AO2 T02430148
KMDD 222355Z AUTO 12003KT 10SM SCT037 24/15 A2995 RMK AO2 LTG DSNT SW T02420148 10255 20200
KMDD 222335Z AUTO 11003KT 10SM CLR 25/15 A2995 RMK AO2 T02450147
KMDD 222315Z AUTO 08004KT 10SM SCT039 25/14 A2994 RMK AO2 T02460143
KMDD 222255Z AUTO 08004KT 10SM SCT039 25/14 A2994 RMK AO2 T02470142
KMDD 222235Z AUTO 09004KT 10SM SCT037 25/14 A2993 RMK AO2 T02510143
KMDD 222215Z AUTO 00000KT 10SM CLR 25/14 A2995 RMK AO2 T02500143
KMDD 222155Z AUTO 16004KT 10SM CLR 25/14 A2995 RMK AO2 T02540140
KMDD 222135Z AUTO 00000KT 10SM CLR 26/14 A2996 RMK AO2 T02550138
KMDD 222115Z AUTO 13004KT 10SM SCT030 25/14 A2997 RMK AO2 T02480141
KMDD 222055Z AUTO 06004KT 10SM BKN030 24/14 A2999 RMK AO2 T02370142
KMDD 222035Z AUTO 00000KT 10SM SCT028 24/14 A2999 RMK AO2 T02410143
KMDD 222015Z AUTO 00000KT 10SM BKN028 23/14 A3001 RMK AO2 T02320144
KMDD 221955Z AUTO 12003KT 10SM OVC028 23/14 A3002 RMK AO2 T02270144
KMDD 221935Z AUTO 17003KT 10SM BKN024 OVC029 22/15 A3003 RMK AO2 T02200145
KMDD 221915Z AUTO 18005KT 10SM BKN021 OVC026 22/15 A3003 RMK AO2 T02160147
KMDD 221855Z AUTO 18005KT 10SM OVC019 22/15 A3004 RMK AO2 T02170146
KMDD 221835Z AUTO 12003KT 10SM OVC015 21/15 A3005 RMK AO2 T02050145
KMDD 221815Z AUTO 18003KT 10SM OVC015 20/15 A3006 RMK AO2 T02010146
KMDD 221755Z AUTO 12006KT 10SM OVC011 20/15 A3006 RMK AO2 T01980145 10198 20155
KMDD 221735Z AUTO 13007KT 10SM OVC009 20/14 A3006 RMK AO2 T01950143
KMDD 221710Z AUTO 13007KT 10SM OVC009 18/14 A3007 RMK AO2 T01790142
KMDD 221655Z AUTO 11004KT 7SM OVC009 18/14 A3007 RMK AO2 T01770141
KMDD 221630Z AUTO 10003KT 10SM OVC007 17/14 A3008 RMK AO2 T01700140
KMDD 221615Z AUTO 09004KT 10SM OVC007 17/14 A3008 RMK AO2 T01690140
KMDD 221554Z AUTO 10004KT 5SM BR OVC005 16/14 A3009 RMK AO2
KMDD 221535Z AUTO 10006KT 2 1/2SM BR OVC005 16/15 A3009 RMK AO2 T01580149
KMDD 221434Z AUTO 06006KT 7SM OVC005 16/16 A3010 RMK AO2
KMDD 221415Z AUTO 05007KT 4SM BR OVC005 16/15 A3010 RMK AO2 T01550151
KMDD 221355Z AUTO 05008KT 2SM -RA OVC005 16/14 A3010 RMK AO2
KMDD 221335Z AUTO 06006KT 7SM OVC005 16/14 A3010 RMK AO2 T01580138
KMDD 221315Z AUTO 07005KT 10SM OVC005 16/14 A3010 RMK AO2 T01570137
KMDD 221255Z AUTO 10004KT 10SM OVC007 16/14 A3010 RMK AO2 T01590136
KMDD 221235Z AUTO 13005KT 10SM OVC007 16/14 A3009 RMK AO2 T01570135
KMDD 221215Z AUTO 13006KT 10SM OVC007 16/13 A3009 RMK AO2 T01560132
KMDD 221155Z AUTO 14006KT 10SM OVC007 15/13 A3009 RMK AO2 T01540131 10160 20145
KMDD 221135Z AUTO 12006KT 10SM OVC007 15/13 A3008 RMK AO2 T01520130
KMDD 221110Z AUTO 13008KT 10SM OVC007 15/13 A3009 RMK AO2 LTG DSNT N T01520127
KMDD 221055Z AUTO 12009KT 10SM OVC007 15/13 A3010 RMK AO2 T01520126
KMDD 221035Z AUTO 12007KT 10SM OVC007 15/13 A3010 RMK AO2 T01530126
KMDD 221015Z AUTO 11006KT 10SM OVC009 15/13 A3010 RMK AO2 T01520125
KMDD 220955Z AUTO 12009KT 10SM OVC009 15/13 A3010 RMK AO2 T01520125
KMDD 220935Z AUTO 12009KT 10SM OVC009 15/12 A3011 RMK AO2 T01520123
KMDD 220915Z AUTO 12007KT 10SM OVC009 16/13 A3012 RMK AO2 T01550126
KMDD 220855Z AUTO 12005KT 10SM OVC009 16/13 A3012 RMK AO2 T01560127
KMDD 220835Z AUTO 13007KT 10SM OVC011 16/13 A3013 RMK AO2 T01550126
KMDD 220815Z AUTO 11009KT 10SM OVC011 16/13 A3012 RMK AO2 T01600129
KMDD 220755Z AUTO 13008KT 10SM OVC011 16/13 A3012 RMK AO2 T01600128
KMDD 220735Z AUTO 12009KT 10SM OVC011 16/13 A3013 RMK AO2 T01600130
KMDD 220715Z AUTO 13006KT 10SM OVC011 16/13 A3013 RMK AO2 T01570131
KMDD 220655Z AUTO 12005KT 10SM OVC009 16/13 A3014 RMK AO2 T01550131
KMDD 220635Z AUTO 12007KT 10SM OVC009 15/13 A3013 RMK AO2 T01490130
KMDD 220615Z AUTO 10006KT 10SM SCT011 15/13 A3013 RMK AO2 T01450126
KMDD 220555Z AUTO 10005KT 10SM CLR 15/13 A3013 RMK AO2 T01470126 10197 20147 402210147
KMDD 220535Z AUTO 10005KT 10SM CLR 15/13 A3014 RMK AO2 T01500125
KMDD 220515Z AUTO 11006KT 10SM CLR 15/12 A3014 RMK AO2 T01500122
KMDD 220455Z AUTO 11008KT 10SM CLR 16/12 A3014 RMK AO2 T01550122
KMDD 220435Z AUTO 11008KT 10SM CLR 16/12 A3014 RMK AO2 T01570122
KMDD 220415Z AUTO 11007KT 10SM CLR 16/12 A3014 RMK AO2 T01600123
KMDD 220355Z AUTO 12006KT 10SM CLR 16/12 A3014 RMK AO2 T01620123
KMDD 220335Z AUTO 11005KT 10SM CLR 16/12 A3013 RMK AO2 T01620122
KMDD 220315Z AUTO 10005KT 10SM CLR 17/12 A3012 RMK AO2 T01650121
KMDD 220255Z AUTO 10005KT 10SM CLR 17/12 A3011 RMK AO2 T01660122
KMDD 220235Z AUTO 08004KT 10SM CLR 17/12 A3010 RMK AO2 T01650121
KMDD 220215Z AUTO 09006KT 10SM CLR 17/12 A3010 RMK AO2 T01700121
KMDD 220155Z AUTO 09007KT 10SM CLR 17/13 A3009 RMK AO2 T01730125
KMDD 220135Z AUTO 08008KT 10SM CLR 18/13 A3009 RMK AO2 T01800125
KMDD 220115Z AUTO 10008KT 10SM CLR 19/13 A3009 RMK AO2 T01850126
KMDD 220055Z AUTO 10006KT 10SM CLR 19/13 A3009 RMK AO2 T01900128
KMDD 220030Z AUTO 10007KT 10SM CLR 19/13 A3009 RMK AO2 T01940128
KMDD 220015Z AUTO 09007KT 10SM SCT019 19/13 A3009 RMK AO2 T01930128
KMDD 212355Z AUTO 10009KT 10SM SCT019 20/13 A3010 RMK AO2 T01960130 10208 20191
KMDD 212335Z AUTO 10008KT 10SM CLR 20/13 A3010 RMK AO2 T01990125
KMDD 212315Z AUTO 11009KT 10SM CLR 19/13 A3011 RMK AO2 T01940125
KMDD 212255Z AUTO 13010G16KT 10SM CLR 19/12 A3010 RMK AO2 T01940121
KMDD 212235Z AUTO 12014G19KT 10SM SCT029 SCT090 20/12 A3010 RMK AO2 T02020118
KMDD 212215Z AUTO 11014KT 10SM BKN031 20/10 A3010 RMK AO2 T02040103
KMDD 212155Z AUTO 11015KT 10SM BKN031 21/10 A3011 RMK AO2 T02050101
KMDD 212135Z AUTO 12010G15KT 10SM CLR 21/10 A3012 RMK AO2 T02060101
KMDD 212115Z AUTO 11011G16KT 10SM SCT024 SCT029 SCT035 20/10 A3010 RMK AO2 T01990101
KMDD 212055Z AUTO 11015G18KT 10SM -RA SCT024 SCT029 SCT036 20/10 A3014 RMK AO2 T02010097
KMDD 212035Z AUTO 10011KT 10SM CLR 20/09 A3014 RMK AO2 LTG DSNT N SE AND NW T02010088
KMDD 212015Z AUTO 09011KT 10SM CLR 21/09 A3014 RMK AO2 LTG DSNT SE T02050089
KMDD 211955Z AUTO 12013G21KT 10SM -DZ SCT031 BKN038 20/10 A3013 RMK AO2 LTG DSNT SE AND NW T02000096
KMDD 211935Z AUTO 12011G17KT 10SM -RA OVC032 20/09 A3015 RMK AO2 LTG DSNT SE AND W T02000094
KMDD 211915Z AUTO 13015G18KT 10SM OVC031 21/09 A3016 RMK AO2 LTG DSNT SW AND W T02050089
KMDD 211855Z AUTO 12014G17KT 10SM OVC031 21/09 A3016 RMK AO2 LTG DSNT S AND SW T02050090
KMDD 211835Z AUTO 11015G19KT 10SM BKN029 21/09 A3014 RMK AO2 LTG DSNT S T02050089
KMDD 211815Z AUTO 10012KT 10SM SCT030 SCT037 20/09 A3013 RMK AO2 T02040092
KMDD 211755Z AUTO 09014G19KT 10SM OVC030 21/10 A3014 RMK AO2 LTG DSNT SW T02070095 10221 20182
KMDD 211735Z AUTO 11013G19KT 10SM OVC030 21/10 A3017 RMK AO2 LTG DSNT SW T02120100
KMDD 211715Z AUTO 09016G25KT 10SM OVC030 22/10 A3017 RMK AO2 LTG DSNT S T02150101


Page loaded:  05:06 UTC  |   10:06 PM Pacific  |   11:06 PM Mountain  |   12:06 AM Central  |   01:06 AM Eastern

 

ADVISORIES

FORECASTS

FORECASTS

OBSERVATIONS

USER TOOLS

ABOUT US